sensor_id;sensor_type;location;lat;lon;timestamp;P1;durP1;ratioP1;P2;durP2;ratioP2
74196;SDS011;62555;52.678;4.900;2023-09-19T00:00:58;1.60;;;0.90;;
74196;SDS011;62555;52.678;4.900;2023-09-19T00:03:23;2.07;;;1.20;;
74196;SDS011;62555;52.678;4.900;2023-09-19T00:05:50;1.92;;;0.90;;
74196;SDS011;62555;52.678;4.900;2023-09-19T00:08:15;2.78;;;0.98;;
74196;SDS011;62555;52.678;4.900;2023-09-19T00:10:41;1.75;;;0.98;;
74196;SDS011;62555;52.678;4.900;2023-09-19T00:13:07;3.17;;;1.13;;
74196;SDS011;62555;52.678;4.900;2023-09-19T00:15:36;1.48;;;0.98;;
74196;SDS011;62555;52.678;4.900;2023-09-19T00:18:02;2.47;;;1.30;;
74196;SDS011;62555;52.678;4.900;2023-09-19T00:20:30;3.08;;;1.13;;
74196;SDS011;62555;52.678;4.900;2023-09-19T00:22:55;1.80;;;0.80;;
74196;SDS011;62555;52.678;4.900;2023-09-19T00:25:20;2.40;;;1.20;;
74196;SDS011;62555;52.678;4.900;2023-09-19T00:27:49;2.30;;;1.27;;
74196;SDS011;62555;52.678;4.900;2023-09-19T00:30:16;2.25;;;0.90;;
74196;SDS011;62555;52.678;4.900;2023-09-19T00:32:46;2.65;;;1.45;;
74196;SDS011;62555;52.678;4.900;2023-09-19T00:35:12;2.65;;;1.02;;
74196;SDS011;62555;52.678;4.900;2023-09-19T00:37:37;2.47;;;0.95;;
74196;SDS011;62555;52.678;4.900;2023-09-19T00:40:04;1.55;;;1.10;;
74196;SDS011;62555;52.678;4.900;2023-09-19T00:42:30;1.90;;;1.08;;
74196;SDS011;62555;52.678;4.900;2023-09-19T00:44:56;2.10;;;1.05;;
74196;SDS011;62555;52.678;4.900;2023-09-19T00:47:21;3.63;;;1.00;;
74196;SDS011;62555;52.678;4.900;2023-09-19T00:49:46;2.42;;;1.00;;
74196;SDS011;62555;52.678;4.900;2023-09-19T00:52:14;1.88;;;1.00;;
74196;SDS011;62555;52.678;4.900;2023-09-19T00:54:39;1.80;;;0.87;;
74196;SDS011;62555;52.678;4.900;2023-09-19T00:57:04;4.43;;;1.20;;
74196;SDS011;62555;52.678;4.900;2023-09-19T00:59:29;1.53;;;0.77;;
74196;SDS011;62555;52.678;4.900;2023-09-19T01:01:55;1.67;;;0.80;;
74196;SDS011;62555;52.678;4.900;2023-09-19T01:04:21;2.05;;;0.82;;
74196;SDS011;62555;52.678;4.900;2023-09-19T01:06:46;2.88;;;1.08;;
74196;SDS011;62555;52.678;4.900;2023-09-19T01:09:11;2.50;;;1.00;;
74196;SDS011;62555;52.678;4.900;2023-09-19T01:11:43;2.63;;;1.00;;
74196;SDS011;62555;52.678;4.900;2023-09-19T01:16:48;2.03;;;1.00;;
74196;SDS011;62555;52.678;4.900;2023-09-19T01:22:42;1.90;;;0.80;;
74196;SDS011;62555;52.678;4.900;2023-09-19T01:24:55;2.33;;;0.93;;
74196;SDS011;62555;52.678;4.900;2023-09-19T01:30:13;2.50;;;1.00;;
74196;SDS011;62555;52.678;4.900;2023-09-19T01:32:39;2.47;;;0.70;;
74196;SDS011;62555;52.678;4.900;2023-09-19T01:35:06;2.08;;;1.10;;
74196;SDS011;62555;52.678;4.900;2023-09-19T01:37:31;3.38;;;1.05;;
74196;SDS011;62555;52.678;4.900;2023-09-19T01:40:04;4.77;;;1.87;;
74196;SDS011;62555;52.678;4.900;2023-09-19T01:42:41;3.55;;;0.85;;
74196;SDS011;62555;52.678;4.900;2023-09-19T01:47:48;2.38;;;0.98;;
74196;SDS011;62555;52.678;4.900;2023-09-19T01:50:18;3.88;;;1.20;;
74196;SDS011;62555;52.678;4.900;2023-09-19T01:52:47;2.88;;;1.10;;
74196;SDS011;62555;52.678;4.900;2023-09-19T01:55:13;1.85;;;0.77;;
74196;SDS011;62555;52.678;4.900;2023-09-19T01:57:46;1.50;;;0.85;;
74196;SDS011;62555;52.678;4.900;2023-09-19T02:00:13;2.13;;;1.08;;
74196;SDS011;62555;52.678;4.900;2023-09-19T02:02:39;2.53;;;1.38;;
74196;SDS011;62555;52.678;4.900;2023-09-19T02:05:05;1.30;;;0.80;;
74196;SDS011;62555;52.678;4.900;2023-09-19T02:07:31;1.92;;;0.80;;
74196;SDS011;62555;52.678;4.900;2023-09-19T02:09:57;2.95;;;1.05;;
74196;SDS011;62555;52.678;4.900;2023-09-19T02:12:22;3.25;;;1.00;;
74196;SDS011;62555;52.678;4.900;2023-09-19T02:14:48;2.78;;;0.88;;
74196;SDS011;62555;52.678;4.900;2023-09-19T02:17:13;2.20;;;0.95;;
74196;SDS011;62555;52.678;4.900;2023-09-19T02:19:38;2.07;;;0.93;;
74196;SDS011;62555;52.678;4.900;2023-09-19T02:22:04;2.40;;;1.08;;
74196;SDS011;62555;52.678;4.900;2023-09-19T02:24:36;2.35;;;1.17;;
74196;SDS011;62555;52.678;4.900;2023-09-19T02:27:01;2.80;;;1.00;;
74196;SDS011;62555;52.678;4.900;2023-09-19T02:29:27;4.13;;;1.17;;
74196;SDS011;62555;52.678;4.900;2023-09-19T02:31:52;2.90;;;0.70;;
74196;SDS011;62555;52.678;4.900;2023-09-19T02:34:18;2.47;;;1.20;;
74196;SDS011;62555;52.678;4.900;2023-09-19T02:36:44;2.03;;;0.80;;
74196;SDS011;62555;52.678;4.900;2023-09-19T02:39:09;3.60;;;1.58;;
74196;SDS011;62555;52.678;4.900;2023-09-19T02:41:36;2.72;;;1.25;;
74196;SDS011;62555;52.678;4.900;2023-09-19T02:44:01;2.50;;;1.00;;
74196;SDS011;62555;52.678;4.900;2023-09-19T02:46:27;1.30;;;0.70;;
74196;SDS011;62555;52.678;4.900;2023-09-19T02:48:52;3.22;;;1.10;;
74196;SDS011;62555;52.678;4.900;2023-09-19T02:51:18;2.20;;;1.05;;
74196;SDS011;62555;52.678;4.900;2023-09-19T02:53:43;2.87;;;1.00;;
74196;SDS011;62555;52.678;4.900;2023-09-19T02:56:08;2.88;;;1.02;;
74196;SDS011;62555;52.678;4.900;2023-09-19T02:58:34;2.22;;;0.90;;
74196;SDS011;62555;52.678;4.900;2023-09-19T03:01:07;2.47;;;1.02;;
74196;SDS011;62555;52.678;4.900;2023-09-19T03:03:33;2.17;;;1.05;;
74196;SDS011;62555;52.678;4.900;2023-09-19T03:05:58;2.63;;;0.70;;
74196;SDS011;62555;52.678;4.900;2023-09-19T03:08:23;2.40;;;1.30;;
74196;SDS011;62555;52.678;4.900;2023-09-19T03:10:49;3.10;;;1.42;;
74196;SDS011;62555;52.678;4.900;2023-09-19T03:13:15;1.77;;;1.13;;
74196;SDS011;62555;52.678;4.900;2023-09-19T03:15:41;3.05;;;0.88;;
74196;SDS011;62555;52.678;4.900;2023-09-19T03:18:08;2.50;;;1.10;;
74196;SDS011;62555;52.678;4.900;2023-09-19T03:20:33;3.55;;;0.90;;
74196;SDS011;62555;52.678;4.900;2023-09-19T03:22:58;2.93;;;1.10;;
74196;SDS011;62555;52.678;4.900;2023-09-19T03:25:25;1.67;;;0.90;;
74196;SDS011;62555;52.678;4.900;2023-09-19T03:27:50;1.37;;;0.90;;
74196;SDS011;62555;52.678;4.900;2023-09-19T03:30:15;0.85;;;0.70;;
74196;SDS011;62555;52.678;4.900;2023-09-19T03:32:48;1.83;;;0.73;;
74196;SDS011;62555;52.678;4.900;2023-09-19T03:35:14;2.70;;;0.90;;
74196;SDS011;62555;52.678;4.900;2023-09-19T03:37:43;1.93;;;0.97;;
74196;SDS011;62555;52.678;4.900;2023-09-19T03:40:09;4.00;;;1.10;;
74196;SDS011;62555;52.678;4.900;2023-09-19T03:42:37;2.20;;;0.90;;
74196;SDS011;62555;52.678;4.900;2023-09-19T03:45:02;2.40;;;1.00;;
74196;SDS011;62555;52.678;4.900;2023-09-19T03:47:28;1.58;;;0.80;;
74196;SDS011;62555;52.678;4.900;2023-09-19T03:49:53;3.00;;;0.97;;
74196;SDS011;62555;52.678;4.900;2023-09-19T03:52:18;2.77;;;0.93;;
74196;SDS011;62555;52.678;4.900;2023-09-19T03:54:44;2.27;;;0.90;;
74196;SDS011;62555;52.678;4.900;2023-09-19T03:57:09;3.10;;;1.10;;
74196;SDS011;62555;52.678;4.900;2023-09-19T03:59:34;2.28;;;1.15;;
74196;SDS011;62555;52.678;4.900;2023-09-19T04:02:00;1.67;;;0.88;;
74196;SDS011;62555;52.678;4.900;2023-09-19T04:04:26;1.45;;;0.80;;
74196;SDS011;62555;52.678;4.900;2023-09-19T04:09:19;2.13;;;1.05;;
74196;SDS011;62555;52.678;4.900;2023-09-19T04:11:44;2.10;;;1.00;;
74196;SDS011;62555;52.678;4.900;2023-09-19T04:14:09;4.03;;;1.47;;
74196;SDS011;62555;52.678;4.900;2023-09-19T04:16:35;1.83;;;1.15;;
74196;SDS011;62555;52.678;4.900;2023-09-19T04:19:00;3.40;;;1.05;;
74196;SDS011;62555;52.678;4.900;2023-09-19T04:21:25;2.60;;;0.70;;
74196;SDS011;62555;52.678;4.900;2023-09-19T04:23:51;1.95;;;0.93;;
74196;SDS011;62555;52.678;4.900;2023-09-19T04:26:17;2.97;;;1.07;;
74196;SDS011;62555;52.678;4.900;2023-09-19T04:28:42;2.13;;;0.93;;
74196;SDS011;62555;52.678;4.900;2023-09-19T04:31:09;1.80;;;1.00;;
74196;SDS011;62555;52.678;4.900;2023-09-19T04:33:36;2.08;;;1.10;;
74196;SDS011;62555;52.678;4.900;2023-09-19T04:36:02;3.83;;;0.90;;
74196;SDS011;62555;52.678;4.900;2023-09-19T04:38:28;2.47;;;1.00;;
74196;SDS011;62555;52.678;4.900;2023-09-19T04:40:57;2.50;;;1.17;;
74196;SDS011;62555;52.678;4.900;2023-09-19T04:43:23;2.38;;;1.02;;
74196;SDS011;62555;52.678;4.900;2023-09-19T04:45:49;3.63;;;1.10;;
74196;SDS011;62555;52.678;4.900;2023-09-19T04:48:14;4.00;;;0.93;;
74196;SDS011;62555;52.678;4.900;2023-09-19T04:50:40;2.47;;;1.10;;
74196;SDS011;62555;52.678;4.900;2023-09-19T04:53:06;3.10;;;1.07;;
74196;SDS011;62555;52.678;4.900;2023-09-19T04:55:32;2.47;;;0.88;;
74196;SDS011;62555;52.678;4.900;2023-09-19T04:57:57;2.95;;;1.00;;
74196;SDS011;62555;52.678;4.900;2023-09-19T05:00:23;1.67;;;0.80;;
74196;SDS011;62555;52.678;4.900;2023-09-19T05:02:52;1.55;;;0.80;;
74196;SDS011;62555;52.678;4.900;2023-09-19T05:05:18;2.85;;;1.50;;
74196;SDS011;62555;52.678;4.900;2023-09-19T05:07:44;2.53;;;0.90;;
74196;SDS011;62555;52.678;4.900;2023-09-19T05:10:09;1.73;;;1.52;;
74196;SDS011;62555;52.678;4.900;2023-09-19T05:12:35;2.25;;;1.00;;
74196;SDS011;62555;52.678;4.900;2023-09-19T05:15:01;1.83;;;0.80;;
74196;SDS011;62555;52.678;4.900;2023-09-19T05:17:26;2.90;;;0.80;;
74196;SDS011;62555;52.678;4.900;2023-09-19T05:19:52;2.75;;;1.10;;
74196;SDS011;62555;52.678;4.900;2023-09-19T05:22:17;2.33;;;0.73;;
74196;SDS011;62555;52.678;4.900;2023-09-19T05:24:43;2.58;;;0.93;;
74196;SDS011;62555;52.678;4.900;2023-09-19T05:27:09;2.65;;;0.90;;
74196;SDS011;62555;52.678;4.900;2023-09-19T05:29:35;3.35;;;1.20;;
74196;SDS011;62555;52.678;4.900;2023-09-19T05:32:00;2.63;;;1.00;;
74196;SDS011;62555;52.678;4.900;2023-09-19T05:34:26;2.60;;;1.00;;
74196;SDS011;62555;52.678;4.900;2023-09-19T05:36:54;2.65;;;1.00;;
74196;SDS011;62555;52.678;4.900;2023-09-19T05:39:19;3.57;;;0.80;;
74196;SDS011;62555;52.678;4.900;2023-09-19T05:41:45;3.45;;;0.85;;
74196;SDS011;62555;52.678;4.900;2023-09-19T05:44:12;2.15;;;1.00;;
74196;SDS011;62555;52.678;4.900;2023-09-19T05:46:37;3.05;;;1.40;;
74196;SDS011;62555;52.678;4.900;2023-09-19T05:49:02;2.33;;;0.93;;
74196;SDS011;62555;52.678;4.900;2023-09-19T05:51:28;3.58;;;0.90;;
74196;SDS011;62555;52.678;4.900;2023-09-19T05:53:53;2.33;;;1.00;;
74196;SDS011;62555;52.678;4.900;2023-09-19T05:56:19;2.75;;;1.25;;
74196;SDS011;62555;52.678;4.900;2023-09-19T05:58:45;3.72;;;1.15;;
74196;SDS011;62555;52.678;4.900;2023-09-19T06:01:10;3.40;;;1.23;;
74196;SDS011;62555;52.678;4.900;2023-09-19T06:03:36;2.95;;;1.60;;
74196;SDS011;62555;52.678;4.900;2023-09-19T06:06:01;3.47;;;1.20;;
74196;SDS011;62555;52.678;4.900;2023-09-19T06:08:26;4.90;;;1.08;;
74196;SDS011;62555;52.678;4.900;2023-09-19T06:10:53;3.97;;;1.20;;
74196;SDS011;62555;52.678;4.900;2023-09-19T06:13:19;1.92;;;0.93;;
74196;SDS011;62555;52.678;4.900;2023-09-19T06:15:44;3.03;;;1.10;;
74196;SDS011;62555;52.678;4.900;2023-09-19T06:18:11;2.17;;;0.85;;
74196;SDS011;62555;52.678;4.900;2023-09-19T06:20:40;2.75;;;1.17;;
74196;SDS011;62555;52.678;4.900;2023-09-19T06:23:09;2.15;;;1.05;;
74196;SDS011;62555;52.678;4.900;2023-09-19T06:25:34;3.70;;;1.10;;
74196;SDS011;62555;52.678;4.900;2023-09-19T06:28:00;3.43;;;1.20;;
74196;SDS011;62555;52.678;4.900;2023-09-19T06:30:29;4.05;;;1.10;;
74196;SDS011;62555;52.678;4.900;2023-09-19T06:32:58;3.38;;;1.13;;
74196;SDS011;62555;52.678;4.900;2023-09-19T06:35:24;3.75;;;1.00;;
74196;SDS011;62555;52.678;4.900;2023-09-19T06:37:51;2.33;;;1.00;;
74196;SDS011;62555;52.678;4.900;2023-09-19T06:40:17;2.20;;;1.10;;
74196;SDS011;62555;52.678;4.900;2023-09-19T06:42:43;5.03;;;1.30;;
74196;SDS011;62555;52.678;4.900;2023-09-19T06:45:12;4.32;;;1.60;;
74196;SDS011;62555;52.678;4.900;2023-09-19T06:47:42;4.80;;;1.20;;
74196;SDS011;62555;52.678;4.900;2023-09-19T06:50:08;3.42;;;1.45;;
74196;SDS011;62555;52.678;4.900;2023-09-19T06:52:38;5.57;;;1.60;;
74196;SDS011;62555;52.678;4.900;2023-09-19T06:55:03;4.28;;;1.63;;
74196;SDS011;62555;52.678;4.900;2023-09-19T06:57:30;3.40;;;1.30;;
74196;SDS011;62555;52.678;4.900;2023-09-19T06:59:56;5.65;;;1.50;;
74196;SDS011;62555;52.678;4.900;2023-09-19T07:02:21;3.33;;;1.13;;
74196;SDS011;62555;52.678;4.900;2023-09-19T07:04:47;6.22;;;1.55;;
74196;SDS011;62555;52.678;4.900;2023-09-19T07:07:12;5.93;;;1.70;;
74196;SDS011;62555;52.678;4.900;2023-09-19T07:09:38;3.88;;;1.70;;
74196;SDS011;62555;52.678;4.900;2023-09-19T07:12:04;4.30;;;1.50;;
74196;SDS011;62555;52.678;4.900;2023-09-19T07:14:29;10.02;;;2.38;;
74196;SDS011;62555;52.678;4.900;2023-09-19T07:16:55;5.75;;;2.25;;
74196;SDS011;62555;52.678;4.900;2023-09-19T07:19:20;6.70;;;1.70;;
74196;SDS011;62555;52.678;4.900;2023-09-19T07:21:45;5.75;;;1.75;;
74196;SDS011;62555;52.678;4.900;2023-09-19T07:24:12;4.30;;;1.65;;
74196;SDS011;62555;52.678;4.900;2023-09-19T07:26:38;6.57;;;1.75;;
74196;SDS011;62555;52.678;4.900;2023-09-19T07:29:04;6.90;;;2.05;;
74196;SDS011;62555;52.678;4.900;2023-09-19T07:31:31;7.00;;;2.42;;
74196;SDS011;62555;52.678;4.900;2023-09-19T07:33:56;6.43;;;2.00;;
74196;SDS011;62555;52.678;4.900;2023-09-19T07:36:22;4.30;;;1.57;;
74196;SDS011;62555;52.678;4.900;2023-09-19T07:38:49;3.45;;;1.48;;
74196;SDS011;62555;52.678;4.900;2023-09-19T07:41:14;5.90;;;1.70;;
74196;SDS011;62555;52.678;4.900;2023-09-19T07:43:39;4.83;;;1.60;;
74196;SDS011;62555;52.678;4.900;2023-09-19T07:46:08;5.88;;;1.63;;
74196;SDS011;62555;52.678;4.900;2023-09-19T07:48:36;4.68;;;1.48;;
74196;SDS011;62555;52.678;4.900;2023-09-19T07:51:05;3.67;;;1.40;;
74196;SDS011;62555;52.678;4.900;2023-09-19T07:53:32;5.38;;;1.60;;
74196;SDS011;62555;52.678;4.900;2023-09-19T07:56:05;6.18;;;1.60;;
74196;SDS011;62555;52.678;4.900;2023-09-19T07:58:31;4.57;;;1.52;;
74196;SDS011;62555;52.678;4.900;2023-09-19T08:00:56;5.22;;;2.03;;
74196;SDS011;62555;52.678;4.900;2023-09-19T08:03:21;4.57;;;1.55;;
74196;SDS011;62555;52.678;4.900;2023-09-19T08:05:47;3.05;;;1.50;;
74196;SDS011;62555;52.678;4.900;2023-09-19T08:08:13;4.28;;;1.60;;
74196;SDS011;62555;52.678;4.900;2023-09-19T08:10:39;5.70;;;1.42;;
74196;SDS011;62555;52.678;4.900;2023-09-19T08:13:07;5.28;;;1.90;;
74196;SDS011;62555;52.678;4.900;2023-09-19T08:15:36;6.32;;;1.58;;
74196;SDS011;62555;52.678;4.900;2023-09-19T08:18:01;4.40;;;1.63;;
74196;SDS011;62555;52.678;4.900;2023-09-19T08:20:26;5.45;;;1.77;;
74196;SDS011;62555;52.678;4.900;2023-09-19T08:22:52;5.43;;;1.70;;
74196;SDS011;62555;52.678;4.900;2023-09-19T08:25:19;3.20;;;1.55;;
74196;SDS011;62555;52.678;4.900;2023-09-19T08:27:45;6.60;;;1.65;;
74196;SDS011;62555;52.678;4.900;2023-09-19T08:30:13;5.43;;;2.03;;
74196;SDS011;62555;52.678;4.900;2023-09-19T08:32:39;4.00;;;1.65;;
74196;SDS011;62555;52.678;4.900;2023-09-19T08:35:06;2.95;;;1.23;;
74196;SDS011;62555;52.678;4.900;2023-09-19T08:37:31;4.78;;;1.65;;
74196;SDS011;62555;52.678;4.900;2023-09-19T08:39:57;2.85;;;1.27;;
74196;SDS011;62555;52.678;4.900;2023-09-19T08:42:22;4.27;;;1.70;;
74196;SDS011;62555;52.678;4.900;2023-09-19T08:44:50;6.53;;;2.22;;
74196;SDS011;62555;52.678;4.900;2023-09-19T08:47:15;5.30;;;1.93;;
74196;SDS011;62555;52.678;4.900;2023-09-19T08:49:59;3.70;;;1.42;;
74196;SDS011;62555;52.678;4.900;2023-09-19T08:52:27;3.95;;;1.60;;
74196;SDS011;62555;52.678;4.900;2023-09-19T08:54:52;4.22;;;1.75;;
74196;SDS011;62555;52.678;4.900;2023-09-19T08:57:19;3.55;;;1.40;;
74196;SDS011;62555;52.678;4.900;2023-09-19T08:59:48;4.03;;;1.45;;
74196;SDS011;62555;52.678;4.900;2023-09-19T09:02:14;2.35;;;1.20;;
74196;SDS011;62555;52.678;4.900;2023-09-19T09:04:40;5.00;;;1.85;;
74196;SDS011;62555;52.678;4.900;2023-09-19T09:07:09;4.30;;;2.00;;
74196;SDS011;62555;52.678;4.900;2023-09-19T09:09:35;4.65;;;1.88;;
74196;SDS011;62555;52.678;4.900;2023-09-19T09:12:00;3.45;;;1.50;;
74196;SDS011;62555;52.678;4.900;2023-09-19T09:14:27;3.08;;;1.35;;
74196;SDS011;62555;52.678;4.900;2023-09-19T09:16:52;3.67;;;1.50;;
74196;SDS011;62555;52.678;4.900;2023-09-19T09:19:21;5.18;;;2.05;;
74196;SDS011;62555;52.678;4.900;2023-09-19T09:21:50;4.32;;;1.63;;
74196;SDS011;62555;52.678;4.900;2023-09-19T09:24:28;5.93;;;1.83;;
74196;SDS011;62555;52.678;4.900;2023-09-19T09:26:54;3.42;;;1.55;;
74196;SDS011;62555;52.678;4.900;2023-09-19T09:29:38;3.38;;;1.67;;
74196;SDS011;62555;52.678;4.900;2023-09-19T09:32:21;7.25;;;2.15;;
74196;SDS011;62555;52.678;4.900;2023-09-19T09:34:51;5.03;;;1.77;;
74196;SDS011;62555;52.678;4.900;2023-09-19T09:37:16;5.25;;;1.50;;
74196;SDS011;62555;52.678;4.900;2023-09-19T09:42:28;3.60;;;1.38;;
74196;SDS011;62555;52.678;4.900;2023-09-19T09:45:12;4.55;;;1.67;;
74196;SDS011;62555;52.678;4.900;2023-09-19T09:47:41;4.03;;;1.50;;
74196;SDS011;62555;52.678;4.900;2023-09-19T09:50:06;2.20;;;1.13;;
74196;SDS011;62555;52.678;4.900;2023-09-19T09:52:36;3.97;;;1.80;;
74196;SDS011;62555;52.678;4.900;2023-09-19T09:55:09;6.38;;;2.10;;
74196;SDS011;62555;52.678;4.900;2023-09-19T09:57:34;3.13;;;1.70;;
74196;SDS011;62555;52.678;4.900;2023-09-19T09:59:59;6.68;;;2.03;;
74196;SDS011;62555;52.678;4.900;2023-09-19T10:02:41;4.90;;;1.83;;
74196;SDS011;62555;52.678;4.900;2023-09-19T10:08:11;6.85;;;1.42;;
74196;SDS011;62555;52.678;4.900;2023-09-19T10:10:44;4.70;;;1.60;;
74196;SDS011;62555;52.678;4.900;2023-09-19T10:13:18;4.07;;;1.45;;
74196;SDS011;62555;52.678;4.900;2023-09-19T10:15:50;5.00;;;1.92;;
74196;SDS011;62555;52.678;4.900;2023-09-19T10:18:22;4.43;;;2.00;;
74196;SDS011;62555;52.678;4.900;2023-09-19T10:20:48;5.43;;;1.70;;
74196;SDS011;62555;52.678;4.900;2023-09-19T10:23:17;4.07;;;1.63;;
74196;SDS011;62555;52.678;4.900;2023-09-19T10:25:47;4.72;;;1.80;;
74196;SDS011;62555;52.678;4.900;2023-09-19T10:28:14;4.75;;;1.70;;
74196;SDS011;62555;52.678;4.900;2023-09-19T10:30:43;5.57;;;1.80;;
74196;SDS011;62555;52.678;4.900;2023-09-19T10:33:10;4.88;;;1.92;;
74196;SDS011;62555;52.678;4.900;2023-09-19T10:35:37;4.55;;;1.40;;
74196;SDS011;62555;52.678;4.900;2023-09-19T10:38:05;6.85;;;2.00;;
74196;SDS011;62555;52.678;4.900;2023-09-19T10:40:32;5.90;;;1.60;;
74196;SDS011;62555;52.678;4.900;2023-09-19T10:43:01;5.43;;;1.70;;
74196;SDS011;62555;52.678;4.900;2023-09-19T10:45:30;7.13;;;1.67;;
74196;SDS011;62555;52.678;4.900;2023-09-19T10:47:58;5.50;;;1.98;;
74196;SDS011;62555;52.678;4.900;2023-09-19T10:50:23;4.28;;;2.10;;
74196;SDS011;62555;52.678;4.900;2023-09-19T10:52:49;4.70;;;1.77;;
74196;SDS011;62555;52.678;4.900;2023-09-19T10:55:23;4.00;;;1.35;;
74196;SDS011;62555;52.678;4.900;2023-09-19T10:57:49;4.88;;;1.63;;
74196;SDS011;62555;52.678;4.900;2023-09-19T11:00:14;3.83;;;1.67;;
74196;SDS011;62555;52.678;4.900;2023-09-19T11:08:50;3.60;;;1.48;;
74196;SDS011;62555;52.678;4.900;2023-09-19T11:22:24;4.18;;;1.77;;
74196;SDS011;62555;52.678;4.900;2023-09-19T11:24:51;5.10;;;1.70;;
74196;SDS011;62555;52.678;4.900;2023-09-19T11:27:16;4.53;;;1.90;;
74196;SDS011;62555;52.678;4.900;2023-09-19T11:29:43;4.68;;;1.92;;
74196;SDS011;62555;52.678;4.900;2023-09-19T11:32:08;3.47;;;1.40;;
74196;SDS011;62555;52.678;4.900;2023-09-19T11:37:15;5.22;;;1.90;;
74196;SDS011;62555;52.678;4.900;2023-09-19T11:42:41;4.38;;;1.63;;
74196;SDS011;62555;52.678;4.900;2023-09-19T11:45:06;5.03;;;1.60;;
74196;SDS011;62555;52.678;4.900;2023-09-19T11:47:31;3.90;;;1.80;;
74196;SDS011;62555;52.678;4.900;2023-09-19T11:49:57;4.75;;;2.03;;
74196;SDS011;62555;52.678;4.900;2023-09-19T11:52:25;3.22;;;1.67;;
74196;SDS011;62555;52.678;4.900;2023-09-19T11:54:57;6.03;;;1.98;;
74196;SDS011;62555;52.678;4.900;2023-09-19T11:57:24;4.05;;;1.70;;
74196;SDS011;62555;52.678;4.900;2023-09-19T11:59:50;5.45;;;1.92;;
74196;SDS011;62555;52.678;4.900;2023-09-19T12:02:26;4.53;;;1.40;;
74196;SDS011;62555;52.678;4.900;2023-09-19T12:04:54;4.68;;;2.03;;
74196;SDS011;62555;52.678;4.900;2023-09-19T12:07:19;4.07;;;1.70;;
74196;SDS011;62555;52.678;4.900;2023-09-19T12:09:47;5.18;;;1.63;;
74196;SDS011;62555;52.678;4.900;2023-09-19T12:15:07;3.72;;;1.67;;
74196;SDS011;62555;52.678;4.900;2023-09-19T12:17:36;4.93;;;1.50;;
74196;SDS011;62555;52.678;4.900;2023-09-19T12:20:02;3.28;;;2.22;;
74196;SDS011;62555;52.678;4.900;2023-09-19T12:22:40;6.50;;;1.90;;
74196;SDS011;62555;52.678;4.900;2023-09-19T12:25:06;4.55;;;1.73;;
74196;SDS011;62555;52.678;4.900;2023-09-19T12:27:40;4.45;;;1.73;;
74196;SDS011;62555;52.678;4.900;2023-09-19T12:30:08;5.93;;;2.05;;
74196;SDS011;62555;52.678;4.900;2023-09-19T12:32:34;3.83;;;1.80;;
74196;SDS011;62555;52.678;4.900;2023-09-19T12:34:59;3.75;;;2.00;;
74196;SDS011;62555;52.678;4.900;2023-09-19T12:37:25;3.33;;;1.43;;
74196;SDS011;62555;52.678;4.900;2023-09-19T12:40:03;3.88;;;2.03;;
74196;SDS011;62555;52.678;4.900;2023-09-19T12:42:39;2.47;;;1.42;;
74196;SDS011;62555;52.678;4.900;2023-09-19T12:45:06;5.10;;;2.20;;
74196;SDS011;62555;52.678;4.900;2023-09-19T12:47:34;4.13;;;1.50;;
74196;SDS011;62555;52.678;4.900;2023-09-19T12:50:06;3.80;;;2.00;;
74196;SDS011;62555;52.678;4.900;2023-09-19T12:52:35;2.53;;;1.45;;
74196;SDS011;62555;52.678;4.900;2023-09-19T12:55:01;5.75;;;1.95;;
74196;SDS011;62555;52.678;4.900;2023-09-19T12:57:27;4.93;;;1.40;;
74196;SDS011;62555;52.678;4.900;2023-09-19T12:59:52;4.47;;;2.30;;
74196;SDS011;62555;52.678;4.900;2023-09-19T13:02:18;3.92;;;1.77;;
74196;SDS011;62555;52.678;4.900;2023-09-19T13:04:52;5.88;;;1.92;;
74196;SDS011;62555;52.678;4.900;2023-09-19T13:10:04;4.65;;;2.00;;
74196;SDS011;62555;52.678;4.900;2023-09-19T13:12:36;6.07;;;1.80;;
74196;SDS011;62555;52.678;4.900;2023-09-19T13:15:07;3.63;;;2.00;;
74196;SDS011;62555;52.678;4.900;2023-09-19T13:17:42;4.18;;;2.22;;
74196;SDS011;62555;52.678;4.900;2023-09-19T13:20:19;6.13;;;2.10;;
74196;SDS011;62555;52.678;4.900;2023-09-19T13:22:49;4.57;;;2.33;;
74196;SDS011;62555;52.678;4.900;2023-09-19T13:25:20;5.30;;;1.83;;
74196;SDS011;62555;52.678;4.900;2023-09-19T13:27:46;7.05;;;1.83;;
74196;SDS011;62555;52.678;4.900;2023-09-19T13:30:13;5.10;;;2.00;;
74196;SDS011;62555;52.678;4.900;2023-09-19T13:32:38;5.18;;;2.60;;
74196;SDS011;62555;52.678;4.900;2023-09-19T13:35:05;6.32;;;2.50;;
74196;SDS011;62555;52.678;4.900;2023-09-19T13:37:33;3.70;;;1.90;;
74196;SDS011;62555;52.678;4.900;2023-09-19T13:40:00;6.63;;;2.80;;
74196;SDS011;62555;52.678;4.900;2023-09-19T13:42:25;5.00;;;2.15;;
74196;SDS011;62555;52.678;4.900;2023-09-19T13:44:54;5.93;;;2.83;;
74196;SDS011;62555;52.678;4.900;2023-09-19T13:47:19;6.13;;;2.58;;
74196;SDS011;62555;52.678;4.900;2023-09-19T13:49:49;5.07;;;2.38;;
74196;SDS011;62555;52.678;4.900;2023-09-19T13:52:15;6.50;;;3.15;;
74196;SDS011;62555;52.678;4.900;2023-09-19T13:54:40;5.80;;;2.33;;
74196;SDS011;62555;52.678;4.900;2023-09-19T13:57:06;7.40;;;2.67;;
74196;SDS011;62555;52.678;4.900;2023-09-19T13:59:32;6.30;;;2.72;;
74196;SDS011;62555;52.678;4.900;2023-09-19T14:01:57;8.02;;;2.33;;
74196;SDS011;62555;52.678;4.900;2023-09-19T14:04:22;8.53;;;2.57;;
74196;SDS011;62555;52.678;4.900;2023-09-19T14:06:48;7.32;;;2.75;;
74196;SDS011;62555;52.678;4.900;2023-09-19T14:09:13;3.80;;;2.13;;
74196;SDS011;62555;52.678;4.900;2023-09-19T14:11:38;4.93;;;2.50;;
74196;SDS011;62555;52.678;4.900;2023-09-19T14:14:03;3.75;;;2.22;;
74196;SDS011;62555;52.678;4.900;2023-09-19T14:16:29;7.88;;;2.88;;
74196;SDS011;62555;52.678;4.900;2023-09-19T14:18:56;6.68;;;3.10;;
74196;SDS011;62555;52.678;4.900;2023-09-19T14:21:21;6.82;;;2.17;;
74196;SDS011;62555;52.678;4.900;2023-09-19T14:23:46;5.30;;;2.85;;
74196;SDS011;62555;52.678;4.900;2023-09-19T14:26:12;4.83;;;2.60;;
74196;SDS011;62555;52.678;4.900;2023-09-19T14:28:37;8.30;;;2.38;;
74196;SDS011;62555;52.678;4.900;2023-09-19T14:31:06;6.88;;;2.80;;
74196;SDS011;62555;52.678;4.900;2023-09-19T14:33:32;4.97;;;2.20;;
74196;SDS011;62555;52.678;4.900;2023-09-19T14:35:57;6.87;;;2.67;;
74196;SDS011;62555;52.678;4.900;2023-09-19T14:38:22;5.65;;;2.25;;
74196;SDS011;62555;52.678;4.900;2023-09-19T14:40:48;7.27;;;2.67;;
74196;SDS011;62555;52.678;4.900;2023-09-19T14:43:15;8.00;;;3.13;;
74196;SDS011;62555;52.678;4.900;2023-09-19T14:45:40;8.02;;;2.90;;
74196;SDS011;62555;52.678;4.900;2023-09-19T14:48:05;8.70;;;3.03;;
74196;SDS011;62555;52.678;4.900;2023-09-19T14:50:31;7.07;;;2.55;;
74196;SDS011;62555;52.678;4.900;2023-09-19T14:52:56;8.10;;;4.47;;
74196;SDS011;62555;52.678;4.900;2023-09-19T14:55:21;7.88;;;2.55;;
74196;SDS011;62555;52.678;4.900;2023-09-19T14:57:50;10.82;;;3.67;;
74196;SDS011;62555;52.678;4.900;2023-09-19T15:00:17;9.15;;;2.97;;
74196;SDS011;62555;52.678;4.900;2023-09-19T15:02:43;9.85;;;3.35;;
74196;SDS011;62555;52.678;4.900;2023-09-19T15:05:10;8.95;;;2.88;;
74196;SDS011;62555;52.678;4.900;2023-09-19T15:07:36;7.05;;;2.50;;
74196;SDS011;62555;52.678;4.900;2023-09-19T15:10:05;7.05;;;2.88;;
74196;SDS011;62555;52.678;4.900;2023-09-19T15:12:32;12.90;;;3.58;;
74196;SDS011;62555;52.678;4.900;2023-09-19T15:14:58;8.20;;;3.05;;
74196;SDS011;62555;52.678;4.900;2023-09-19T15:17:23;7.27;;;2.67;;
74196;SDS011;62555;52.678;4.900;2023-09-19T15:19:50;11.15;;;4.00;;
74196;SDS011;62555;52.678;4.900;2023-09-19T15:22:15;7.33;;;2.50;;
74196;SDS011;62555;52.678;4.900;2023-09-19T15:24:40;7.82;;;3.03;;
74196;SDS011;62555;52.678;4.900;2023-09-19T15:27:05;9.25;;;2.80;;
74196;SDS011;62555;52.678;4.900;2023-09-19T15:29:30;9.30;;;2.90;;
74196;SDS011;62555;52.678;4.900;2023-09-19T15:31:56;6.73;;;3.03;;
74196;SDS011;62555;52.678;4.900;2023-09-19T15:34:23;6.10;;;3.22;;